Latest Weather Observations for Maria Island

IDT60801

Issued at 10:21 pm EST Tuesday 21 May 2024 (issued every 10 minutes, with the page automatically refreshed every 10 minutes)

About weather observations | Map of weather stations | Latest weather observations for TAS | Other Formats
Station Details ID: 092124 Name: MARIA ISLAND (POINT LESUEUR) Lat: -42.66 Lon: 148.02 Height: 28.0 m
Data from the previous 72 hours. | See also: Recent months at Maria Island
Date/Time
EST
Temp
°C
App
Temp
°C
Dew
Point
°C
Rel
Hum
%
Delta-T
°C
Wind Press
QNH
hPa
Press
MSL
hPa
Rain since
9am
mm
Dir  Spd
km/h
Gust
km/h
Spd
kts
Gust
kts
21/10:00pm 11.7 10.4 9.9 89 0.9 NNW 7 9 4 5 1026.7 1026.7 1.2
21/09:30pm 11.6 10.3 9.9 89 0.9 N 7 9 4 5 1026.9 1026.9 1.2
21/09:00pm 11.4 9.9 9.3 87 1.0 N 7 9 4 5 1026.9 1026.9 1.0
21/08:30pm 11.3 9.3 8.5 83 1.4 NW 9 11 5 6 1026.9 1026.9 0.8
21/08:00pm 11.7 8.9 8.7 82 1.5 NW 13 17 7 9 1026.9 1026.9 0.8
21/07:30pm 11.4 8.7 9.0 85 1.2 N 13 15 7 8 1026.9 1026.9 0.8
21/07:00pm 11.4 8.9 8.3 81 1.5 NNW 11 15 6 8 1027.0 1027.0 0.8
21/06:30pm 11.1 9.0 8.1 82 1.5 N 9 13 5 7 1026.9 1026.9 0.8
21/06:00pm 11.1 9.5 7.8 80 1.6 NW 6 7 3 4 1027.1 1027.1 0.8
21/05:30pm 11.8 10.1 7.5 75 2.1 W 6 7 3 4 1026.8 1026.8 0.4
21/05:00pm 12.8 9.6 7.0 68 2.8 WNW 13 15 7 8 1026.4 1026.4 0.0
21/04:30pm 12.9 9.7 6.7 66 3.0 NW 13 17 7 9 1026.3 1026.3 0.0
21/04:00pm 12.6 9.8 7.1 69 2.6 NW 11 17 6 9 1026.5 1026.5 0.0
21/03:30pm 13.4 10.7 7.2 66 3.0 NW 11 13 6 7 1026.7 1026.7 0.0
21/03:00pm 13.2 11.4 7.2 67 2.9 N 6 7 3 4 1026.6 1026.6 0.0
21/02:30pm 13.2 11.2 7.2 67 2.9 N 7 9 4 5 1026.7 1026.7 0.0
21/02:00pm 13.1 11.5 6.5 64 3.1 N 4 6 2 3 1026.9 1026.9 0.0
21/01:30pm 13.2 11.6 6.5 64 3.2 NNE 4 6 2 3 1027.2 1027.2 0.0
21/01:00pm 12.9 11.0 6.7 66 3.0 N 6 7 3 4 1027.5 1027.5 0.0
21/12:30pm 13.5 11.2 7.5 67 2.9 NNW 9 13 5 7 1027.8 1027.8 0.0
21/12:00pm 13.1 10.3 7.1 67 2.9 SSW 11 13 6 7 1028.2 1028.2 0.0
21/11:30am 13.1 11.0 6.5 64 3.2 NNE 7 11 4 6 1028.6 1028.6 0.0
21/11:00am 12.3 10.6 6.1 66 2.9 N 4 7 2 4 1029.0 1029.0 0.0
21/10:30am 12.0 9.9 5.9 66 2.9 WSW 6 9 3 5 1029.1 1029.1 0.0
21/10:00am 11.6 9.5 5.9 68 2.6 W 6 9 3 5 1029.1 1029.1 0.0
21/09:30am 10.8 8.0 5.1 68 2.6 WNW 9 13 5 7 1029.1 1029.1 0.0
21/09:00am 9.6 6.0 5.2 74 2.0 WNW 13 17 7 9 1029.4 1029.5 0.0
21/08:30am 9.1 6.3 5.3 77 1.7 WNW 9 13 5 7 1029.3 1029.4 0.0
21/08:00am 8.6 5.1 5.4 80 1.4 WNW 13 15 7 8 1029.1 1029.1 0.0
21/07:30am 7.8 3.4 4.6 80 1.4 WNW 17 19 9 10 1029.0 1029.0 0.0
21/07:00am 7.9 3.1 4.8 81 1.4 WNW 19 24 10 13 1028.8 1028.8 0.0
21/06:30am 8.1 3.3 4.7 79 1.5 WNW 19 24 10 13 1028.7 1028.7 0.0
21/06:00am 8.0 4.0 5.1 82 1.3 W 15 20 8 11 1028.8 1028.8 0.0
21/05:30am 8.2 3.8 5.0 80 1.4 W 17 19 9 10 1028.8 1028.8 0.0
21/05:00am 8.9 5.7 4.9 76 1.8 WSW 11 15 6 8 1028.7 1028.7 0.0
21/04:30am 9.1 5.2 5.3 77 1.7 WSW 15 19 8 10 1028.7 1028.7 0.0
21/04:00am 8.6 4.3 5.2 79 1.5 W 17 19 9 10 1028.6 1028.6 0.0
21/03:30am 9.3 4.5 4.5 72 2.1 SW 19 26 10 14 1028.8 1028.8 0.0
21/03:00am 9.4 4.3 4.2 70 2.3 SW 20 24 11 13 1029.0 1029.0 0.0
21/02:30am 9.8 4.5 5.0 72 2.2 SW 22 28 12 15 1029.0 1029.0 0.0
21/02:00am 10.1 4.8 5.1 71 2.2 SW 22 28 12 15 1029.0 1029.0 0.0
21/01:30am 10.1 5.4 5.3 72 2.2 SW 19 24 10 13 1028.9 1028.9 0.0
21/01:00am 10.2 5.6 5.8 74 2.0 SW 19 22 10 12 1029.1 1029.1 0.0
21/12:30am 10.2 5.4 5.4 72 2.2 SW 20 28 11 15 1029.2 1029.2 0.0
21/12:00am 10.2 5.6 6.4 77 1.8 SW 20 26 11 14 1029.4 1029.5 0.0
 
Date/Time
EST
Temp
°C
App
Temp
°C
Dew
Point
°C
Rel
Hum
%
Delta-T
°C
Wind Press
QNH
hPa
Press
MSL
hPa
Rain since
9am
mm
Dir  Spd
km/h
Gust
km/h
Spd
kts
Gust
kts
20/11:30pm 10.1 6.6 7.0 81 1.5 SSW 15 20 8 11 1029.3 1029.4 0.0
20/11:00pm 10.1 4.8 6.6 79 1.6 SSW 24 30 13 16 1029.4 1029.5 0.0
20/10:30pm 10.4 5.4 6.5 77 1.8 SSW 22 32 12 17 1029.3 1029.4 0.0
20/10:00pm 10.4 6.3 6.4 76 1.9 SW 17 26 9 14 1029.4 1029.5 0.0
20/09:30pm 10.6 6.2 6.4 75 2.0 SSW 19 24 10 13 1029.2 1029.2 0.0
20/09:00pm 10.6 6.1 6.0 73 2.1 SSW 19 22 10 12 1029.1 1029.1 0.0
20/08:30pm 10.6 5.5 5.8 72 2.2 SSW 22 28 12 15 1028.9 1028.9 0.0
20/08:00pm 10.8 5.7 5.8 71 2.3 SSW 22 26 12 14 1028.7 1028.7 0.0
20/07:30pm 10.9 5.3 5.4 69 2.5 SSW 24 28 13 15 1028.7 1028.7 0.0
20/07:00pm 11.1 6.8 5.2 67 2.7 SSW 17 24 9 13 1028.5 1028.5 0.0
20/06:30pm 11.0 6.3 5.3 68 2.6 SSW 19 24 10 13 1028.3 1028.3 0.0
20/06:00pm 10.9 7.3 4.8 66 2.7 SW 13 17 7 9 1028.2 1028.2 0.0
20/05:30pm 11.1 7.2 5.2 67 2.7 WSW 15 19 8 10 1027.8 1027.8 0.0
20/05:00pm 11.1 6.5 5.4 68 2.6 SW 19 24 10 13 1027.6 1027.6 0.0
20/04:30pm 11.1 6.3 5.8 70 2.5 SW 20 26 11 14 1027.5 1027.5 0.0
20/04:00pm 11.8 6.6 5.4 65 2.9 SW 22 26 12 14 1027.4 1027.4 0.0
20/03:30pm 11.8 5.8 5.2 64 3.0 SW 26 32 14 17 1027.0 1027.0 0.0
20/03:00pm 12.0 6.4 5.6 65 3.0 SW 24 32 13 17 1026.7 1026.7 0.0
20/02:30pm 11.4 4.9 6.3 71 2.4 SW 30 33 16 18 1026.6 1026.6 0.0
20/02:00pm 11.4 6.1 6.7 73 2.2 SW 24 30 13 16 1026.6 1026.6 0.0
20/01:30pm 11.4 5.0 6.9 74 2.1 SSW 30 37 16 20 1026.7 1026.7 0.0
20/01:00pm 11.9 5.2 7.2 73 2.2 SSW 32 37 17 20 1026.8 1026.8 0.0
20/12:30pm 11.3 5.6 6.8 74 2.1 SSW 26 33 14 18 1027.1 1027.1 0.0
20/12:00pm 11.0 5.7 6.7 75 2.0 SSW 24 28 13 15 1027.2 1027.2 0.0
20/11:30am 11.0 5.8 7.1 77 1.9 SSW 24 32 13 17 1027.3 1027.3 0.0
20/11:00am 10.7 5.9 7.2 79 1.7 SW 22 26 12 14 1027.2 1027.2 0.0
20/10:30am 10.5 5.2 6.8 78 1.7 SSW 24 30 13 16 1027.4 1027.4 0.0
20/10:00am 10.2 4.1 6.5 78 1.7 SSW 28 33 15 18 1027.2 1027.2 0.0
20/09:30am 10.2 4.2 6.9 80 1.6 SSW 28 35 15 19 1027.0 1027.0 0.0
20/09:00am 9.9 3.7 6.3 78 1.7 SSW 28 35 15 19 1026.8 1026.8 0.2
20/08:30am 9.8 2.7 6.2 78 1.7 SW 33 41 18 22 1026.4 1026.4 0.2
20/08:00am 9.8 3.7 6.5 80 1.5 SW 28 39 15 21 1026.0 1026.0 0.2
20/07:30am 9.9 3.8 6.8 81 1.5 SW 28 35 15 19 1025.7 1025.7 0.2
20/07:00am 9.6 3.4 6.3 80 1.5 SW 28 33 15 18 1025.4 1025.4 0.2
20/06:30am 9.5 3.7 6.2 80 1.5 SW 26 30 14 16 1025.2 1025.2 0.2
20/06:00am 9.4 3.2 6.3 81 1.4 SW 28 35 15 19 1024.9 1024.9 0.2
20/05:30am 9.8 2.8 6.0 77 1.8 SW 32 43 17 23 1024.6 1024.6 0.2
20/05:00am 9.9 3.2 5.7 75 1.9 SW 30 39 16 21 1024.0 1024.0 0.2
20/04:30am 9.8 3.6 6.2 78 1.7 SW 28 33 15 18 1023.8 1023.8 0.2
20/04:00am 9.9 3.6 5.7 75 1.9 SW 28 35 15 19 1023.5 1023.5 0.2
20/03:30am 9.8 3.6 6.0 77 1.8 SW 28 35 15 19 1023.3 1023.3 0.2
20/03:00am 9.7 3.0 5.7 76 1.8 SW 30 35 16 19 1023.1 1023.1 0.2
20/02:30am 9.8 4.0 6.3 79 1.6 SW 26 32 14 17 1023.2 1023.2 0.2
20/02:00am 9.7 4.6 6.1 78 1.7 SW 22 30 12 16 1022.9 1022.9 0.2
20/01:30am 9.7 4.3 6.2 79 1.6 SW 24 30 13 16 1022.6 1022.6 0.2
20/01:00am 9.7 2.8 6.6 81 1.4 SW 32 35 17 19 1022.5 1022.5 0.2
20/12:30am 9.4 2.7 7.2 86 1.0 SW 32 39 17 21 1022.7 1022.7 0.2
20/12:00am 9.3 3.5 7.9 91 0.7 SW 28 33 15 18 1022.8 1022.8 0.0
 
Date/Time
EST
Temp
°C
App
Temp
°C
Dew
Point
°C
Rel
Hum
%
Delta-T
°C
Wind Press
QNH
hPa
Press
MSL
hPa
Rain since
9am
mm
Dir  Spd
km/h
Gust
km/h
Spd
kts
Gust
kts
19/11:30pm 10.1 4.2 7.3 83 1.3 SW 28 35 15 19 1022.6 1022.6 0.0
19/11:00pm 10.2 4.3 7.3 82 1.4 SW 28 33 15 18 1022.2 1022.2 0.0
19/10:30pm 10.1 4.1 7.2 82 1.4 SW 28 33 15 18 1022.1 1022.1 0.0
19/10:00pm 10.8 3.7 8.2 84 1.3 SSW 35 43 19 23 1021.9 1021.9 0.0
19/09:30pm 11.1 5.2 7.4 78 1.8 SW 28 39 15 21 1021.8 1021.8 0.0
19/09:00pm 10.9 5.7 7.4 79 1.7 SW 24 28 13 15 1021.4 1021.4 0.0
19/08:30pm 10.9 6.0 7.0 77 1.9 SW 22 30 12 16 1020.9 1020.9 0.0
19/08:00pm 10.8 5.2 7.3 79 1.7 SW 26 32 14 17 1020.5 1020.5 0.0
19/07:30pm 10.9 6.2 7.6 80 1.6 SW 22 26 12 14 1020.2 1020.2 0.0
19/07:00pm 11.0 5.9 7.7 80 1.6 SSW 24 33 13 18 1019.7 1019.7 0.0
19/06:30pm 11.1 5.6 7.6 79 1.7 SSW 26 32 14 17 1019.3 1019.3 0.0
19/06:00pm 11.3 5.5 7.8 79 1.7 SSW 28 35 15 19 1018.9 1018.9 0.0
19/05:30pm 11.6 5.8 7.9 78 1.8 SSW 28 35 15 19 1018.4 1018.4 0.0
19/05:00pm 11.7 4.8 7.2 74 2.2 SSW 33 39 18 21 1018.0 1018.0 0.0
19/04:30pm 11.9 4.2 7.0 72 2.3 SSW 37 41 20 22 1017.6 1017.6 0.0
19/04:00pm 12.4 5.1 7.3 71 2.5 SSW 35 41 19 22 1017.4 1017.4 0.0
19/03:30pm 12.5 5.2 7.4 71 2.5 SSW 35 39 19 21 1017.0 1017.0 0.0
19/03:00pm 13.1 7.2 7.5 69 2.7 SSW 28 33 15 18 1016.6 1016.6 0.0
19/02:30pm 13.3 7.6 6.9 65 3.1 SW 26 33 14 18 1016.4 1016.4 0.0
19/02:00pm 13.5 7.4 8.1 70 2.7 SSW 30 37 16 20 1016.2 1016.2 0.0
19/01:30pm 13.5 7.4 8.1 70 2.7 SSW 30 35 16 19 1016.1 1016.1 0.0
19/01:00pm 13.9 8.3 7.0 63 3.4 SW 26 37 14 20 1016.2 1016.2 0.0
19/12:30pm 13.7 7.7 7.2 65 3.2 SW 28 35 15 19 1016.2 1016.2 0.0
19/12:00pm 13.0 7.1 7.7 70 2.6 SW 28 33 15 18 1016.1 1016.1 0.0
19/11:30am 12.4 6.9 9.2 81 1.6 SSW 28 32 15 17 1016.2 1016.2 0.0
19/11:00am 12.4 6.5 9.1 80 1.7 SSW 30 33 16 18 1016.5 1016.5 0.0
19/10:30am 11.7 5.7 8.6 81 1.5 SSW 30 35 16 19 1016.6 1016.6 0.0
19/10:00am 12.1 7.2 8.4 78 1.8 SSW 24 33 13 18 1016.3 1016.3 0.0
19/09:30am 11.8 7.6 8.3 79 1.7 SW 20 24 11 13 1016.2 1016.2 0.0
19/09:00am 11.3 6.4 8.5 83 1.4 SW 24 30 13 16 1016.0 1016.0 0.2
19/08:30am 11.5 7.1 9.1 85 1.2 SSW 22 26 12 14 1015.9 1015.9 0.2
19/08:00am 11.6 7.5 8.8 83 1.4 SW 20 24 11 13 1015.6 1015.6 0.2
19/07:30am 10.4 8.6 8.0 85 1.2 W 7 11 4 6 1015.2 1015.2 0.2
19/07:00am 9.9 9.3 7.5 85 1.1 CALM 0 0 0 0 1014.9 1014.9 0.2
19/06:30am 9.9 8.4 6.8 81 1.5 WSW 4 4 2 2 1014.6 1014.6 0.2
19/06:00am 10.1 6.8 6.6 79 1.6 W 13 15 7 8 1014.1 1014.1 0.0
19/05:30am 10.1 6.4 6.3 77 1.8 WNW 15 17 8 9 1013.9 1013.9 0.0
19/05:00am 10.4 5.8 6.4 76 1.9 NW 20 26 11 14 1013.4 1013.4 0.0
19/04:30am 10.1 3.9 6.3 77 1.8 NW 28 33 15 18 1013.4 1013.4 0.0
19/04:00am 10.0 3.4 6.0 76 1.8 NW 30 35 16 19 1013.4 1013.4 0.0
19/03:30am 10.4 2.4 5.8 73 2.1 NNW 37 43 20 23 1013.3 1013.3 0.0
19/03:00am 10.2 2.6 5.8 74 2.0 NNW 35 41 19 22 1013.5 1013.5 0.0
19/02:30am 10.1 2.0 5.1 71 2.3 NNW 37 41 20 22 1013.9 1013.9 0.0
19/02:00am 10.2 1.8 5.4 72 2.2 NNW 39 46 21 25 1014.1 1014.1 0.0
19/01:30am 10.2 0.9 4.8 69 2.4 NNW 43 48 23 26 1014.3 1014.3 0.0
19/01:00am 10.6 1.6 4.5 66 2.7 NW 41 44 22 24 1014.8 1014.8 0.0
19/12:30am 10.6 3.2 4.1 64 2.9 NW 32 37 17 20 1015.7 1015.7 0.0
19/12:00am 10.5 4.7 4.2 65 2.8 NNW 24 32 13 17 1016.2 1016.2 0.0
 
Date/Time
EST
Temp
°C
App
Temp
°C
Dew
Point
°C
Rel
Hum
%
Delta-T
°C
Wind Press
QNH
hPa
Press
MSL
hPa
Rain since
9am
mm
Dir  Spd
km/h
Gust
km/h
Spd
kts
Gust
kts
18/11:30pm 9.9 2.8 3.6 65 2.8 NNW 30 33 16 18 1017.0 1017.0 0.0
18/11:00pm 10.2 2.7 3.3 62 3.0 NNW 32 35 17 19 1017.5 1017.5 0.0
18/10:30pm 10.3 3.9 3.3 62 3.0 NW 26 32 14 17 1018.5 1018.5 0.0

Other formats

Comma delimited format used in spreadsheet applications
http://www.bom.gov.au/fwo/IDT60801/IDT60801.95988.axf

JavaScript Object Notation format (JSON) in row-major order
http://www.bom.gov.au/fwo/IDT60801/IDT60801.95988.json

Data quality

Most of these data are generated automatically and are frequently updated. Quality checks on data are not normally performed. It is possible for incorrect values to appear. Refer to information at About Latest Weather Observations and please check the disclaimer before using these data.